sensor_id;sensor_type;location;lat;lon;timestamp;P1;durP1;ratioP1;P2;durP2;ratioP2
50122;SDS011;36021;48.670;6.184;2023-05-10T00:19:20;2.03;;;1.20;;
50122;SDS011;36021;48.670;6.184;2023-05-10T00:21:47;1.52;;;1.13;;
50122;SDS011;36021;48.670;6.184;2023-05-10T00:24:14;1.13;;;1.02;;
50122;SDS011;36021;48.670;6.184;2023-05-10T00:26:40;1.92;;;1.40;;
50122;SDS011;36021;48.670;6.184;2023-05-10T00:29:08;4.80;;;1.73;;
50122;SDS011;36021;48.670;6.184;2023-05-10T00:31:35;2.13;;;1.50;;
50122;SDS011;36021;48.670;6.184;2023-05-10T00:34:00;1.65;;;1.10;;
50122;SDS011;36021;48.670;6.184;2023-05-10T00:36:27;2.70;;;1.58;;
50122;SDS011;36021;48.670;6.184;2023-05-10T00:38:53;3.42;;;1.10;;
50122;SDS011;36021;48.670;6.184;2023-05-10T00:41:19;1.83;;;1.42;;
50122;SDS011;36021;48.670;6.184;2023-05-10T00:43:45;3.45;;;1.40;;
50122;SDS011;36021;48.670;6.184;2023-05-10T00:46:11;2.15;;;1.33;;
50122;SDS011;36021;48.670;6.184;2023-05-10T00:48:38;2.38;;;1.08;;
50122;SDS011;36021;48.670;6.184;2023-05-10T00:51:03;1.98;;;1.33;;
50122;SDS011;36021;48.670;6.184;2023-05-10T00:53:30;1.58;;;1.40;;
50122;SDS011;36021;48.670;6.184;2023-05-10T00:55:58;1.65;;;0.88;;
50122;SDS011;36021;48.670;6.184;2023-05-10T00:58:24;2.30;;;1.10;;
50122;SDS011;36021;48.670;6.184;2023-05-10T01:00:55;2.55;;;1.85;;
50122;SDS011;36021;48.670;6.184;2023-05-10T01:03:22;1.60;;;0.85;;
50122;SDS011;36021;48.670;6.184;2023-05-10T01:05:49;2.22;;;0.98;;
50122;SDS011;36021;48.670;6.184;2023-05-10T01:08:15;1.48;;;1.00;;
50122;SDS011;36021;48.670;6.184;2023-05-10T01:10:42;0.85;;;0.70;;
50122;SDS011;36021;48.670;6.184;2023-05-10T01:13:08;0.70;;;0.68;;
50122;SDS011;36021;48.670;6.184;2023-05-10T01:15:35;0.65;;;0.65;;
50122;SDS011;36021;48.670;6.184;2023-05-10T01:18:01;2.10;;;0.80;;
50122;SDS011;36021;48.670;6.184;2023-05-10T01:20:42;0.50;;;0.50;;
50122;SDS011;36021;48.670;6.184;2023-05-10T01:26:07;1.80;;;0.63;;
50122;SDS011;36021;48.670;6.184;2023-05-10T01:34:34;3.10;;;0.30;;
50122;SDS011;36021;48.670;6.184;2023-05-10T01:37:11;0.63;;;0.40;;
50122;SDS011;36021;48.670;6.184;2023-05-10T01:42:23;0.23;;;0.23;;
50122;SDS011;36021;48.670;6.184;2023-05-10T01:50:06;1.15;;;0.30;;
50122;SDS011;36021;48.670;6.184;2023-05-10T01:52:42;0.45;;;0.38;;
50122;SDS011;36021;48.670;6.184;2023-05-10T01:55:14;0.35;;;0.35;;
50122;SDS011;36021;48.670;6.184;2023-05-10T01:57:43;2.78;;;0.50;;
50122;SDS011;36021;48.670;6.184;2023-05-10T02:00:11;5.47;;;0.47;;
50122;SDS011;36021;48.670;6.184;2023-05-10T02:02:44;1.75;;;0.40;;
50122;SDS011;36021;48.670;6.184;2023-05-10T02:05:16;0.32;;;0.32;;
50122;SDS011;36021;48.670;6.184;2023-05-10T02:07:43;0.63;;;0.50;;
50122;SDS011;36021;48.670;6.184;2023-05-10T02:10:11;2.47;;;0.30;;
50122;SDS011;36021;48.670;6.184;2023-05-10T02:12:41;0.57;;;0.30;;
50122;SDS011;36021;48.670;6.184;2023-05-10T02:15:08;4.15;;;0.60;;
50122;SDS011;36021;48.670;6.184;2023-05-10T02:17:37;0.20;;;0.20;;
50122;SDS011;36021;48.670;6.184;2023-05-10T02:20:06;0.65;;;0.30;;
50122;SDS011;36021;48.670;6.184;2023-05-10T02:22:33;0.30;;;0.30;;
50122;SDS011;36021;48.670;6.184;2023-05-10T02:27:29;0.40;;;0.40;;
50122;SDS011;36021;48.670;6.184;2023-05-10T02:29:55;0.22;;;0.22;;
50122;SDS011;36021;48.670;6.184;2023-05-10T02:32:23;0.38;;;0.38;;
50122;SDS011;36021;48.670;6.184;2023-05-10T02:34:51;0.35;;;0.30;;
50122;SDS011;36021;48.670;6.184;2023-05-10T02:37:18;3.05;;;0.63;;
50122;SDS011;36021;48.670;6.184;2023-05-10T02:39:46;0.50;;;0.50;;
50122;SDS011;36021;48.670;6.184;2023-05-10T02:42:15;0.32;;;0.30;;
50122;SDS011;36021;48.670;6.184;2023-05-10T02:44:43;0.30;;;0.30;;
50122;SDS011;36021;48.670;6.184;2023-05-10T02:47:14;2.55;;;0.47;;
50122;SDS011;36021;48.670;6.184;2023-05-10T02:49:39;0.68;;;0.57;;
50122;SDS011;36021;48.670;6.184;2023-05-10T02:52:05;0.77;;;0.50;;
50122;SDS011;36021;48.670;6.184;2023-05-10T02:54:35;0.50;;;0.50;;
50122;SDS011;36021;48.670;6.184;2023-05-10T02:57:06;0.38;;;0.30;;
50122;SDS011;36021;48.670;6.184;2023-05-10T02:59:36;0.45;;;0.40;;
50122;SDS011;36021;48.670;6.184;2023-05-10T03:02:02;0.90;;;0.73;;
50122;SDS011;36021;48.670;6.184;2023-05-10T03:04:29;2.05;;;0.50;;
50122;SDS011;36021;48.670;6.184;2023-05-10T03:06:56;0.60;;;0.60;;
50122;SDS011;36021;48.670;6.184;2023-05-10T03:09:23;0.38;;;0.38;;
50122;SDS011;36021;48.670;6.184;2023-05-10T03:15:09;0.50;;;0.50;;
50122;SDS011;36021;48.670;6.184;2023-05-10T03:17:54;0.43;;;0.43;;
50122;SDS011;36021;48.670;6.184;2023-05-10T03:20:36;0.52;;;0.40;;
50122;SDS011;36021;48.670;6.184;2023-05-10T03:23:11;0.70;;;0.40;;
50122;SDS011;36021;48.670;6.184;2023-05-10T03:25:43;0.70;;;0.70;;
50122;SDS011;36021;48.670;6.184;2023-05-10T03:28:11;0.40;;;0.40;;
50122;SDS011;36021;48.670;6.184;2023-05-10T03:30:38;0.50;;;0.40;;
50122;SDS011;36021;48.670;6.184;2023-05-10T03:33:06;1.38;;;0.57;;
50122;SDS011;36021;48.670;6.184;2023-05-10T03:35:35;0.50;;;0.40;;
50122;SDS011;36021;48.670;6.184;2023-05-10T03:38:00;0.47;;;0.47;;
50122;SDS011;36021;48.670;6.184;2023-05-10T03:40:26;0.35;;;0.35;;
50122;SDS011;36021;48.670;6.184;2023-05-10T03:42:54;0.35;;;0.30;;
50122;SDS011;36021;48.670;6.184;2023-05-10T03:45:20;0.45;;;0.45;;
50122;SDS011;36021;48.670;6.184;2023-05-10T03:47:46;1.40;;;0.40;;
50122;SDS011;36021;48.670;6.184;2023-05-10T03:50:12;0.73;;;0.55;;
50122;SDS011;36021;48.670;6.184;2023-05-10T03:52:37;0.25;;;0.25;;
50122;SDS011;36021;48.670;6.184;2023-05-10T03:55:04;0.73;;;0.32;;
50122;SDS011;36021;48.670;6.184;2023-05-10T03:57:31;0.52;;;0.45;;
50122;SDS011;36021;48.670;6.184;2023-05-10T03:59:59;0.30;;;0.30;;
50122;SDS011;36021;48.670;6.184;2023-05-10T04:02:25;0.60;;;0.50;;
50122;SDS011;36021;48.670;6.184;2023-05-10T04:04:51;1.95;;;0.40;;
50122;SDS011;36021;48.670;6.184;2023-05-10T04:07:19;0.38;;;0.38;;
50122;SDS011;36021;48.670;6.184;2023-05-10T04:09:44;0.32;;;0.32;;
50122;SDS011;36021;48.670;6.184;2023-05-10T04:12:10;4.65;;;0.60;;
50122;SDS011;36021;48.670;6.184;2023-05-10T04:14:35;1.02;;;0.30;;
50122;SDS011;36021;48.670;6.184;2023-05-10T04:17:01;0.75;;;0.30;;
50122;SDS011;36021;48.670;6.184;2023-05-10T04:19:29;0.60;;;0.45;;
50122;SDS011;36021;48.670;6.184;2023-05-10T04:21:58;2.28;;;0.40;;
50122;SDS011;36021;48.670;6.184;2023-05-10T04:24:24;0.85;;;0.20;;
50122;SDS011;36021;48.670;6.184;2023-05-10T04:26:50;1.00;;;0.30;;
50122;SDS011;36021;48.670;6.184;2023-05-10T04:29:17;1.30;;;0.60;;
50122;SDS011;36021;48.670;6.184;2023-05-10T04:31:43;0.45;;;0.38;;
50122;SDS011;36021;48.670;6.184;2023-05-10T04:34:10;0.30;;;0.30;;
50122;SDS011;36021;48.670;6.184;2023-05-10T04:36:36;1.00;;;0.70;;
50122;SDS011;36021;48.670;6.184;2023-05-10T04:39:02;0.63;;;0.50;;
50122;SDS011;36021;48.670;6.184;2023-05-10T04:41:28;0.20;;;0.20;;
50122;SDS011;36021;48.670;6.184;2023-05-10T04:43:54;0.52;;;0.52;;
50122;SDS011;36021;48.670;6.184;2023-05-10T04:46:20;0.40;;;0.40;;
50122;SDS011;36021;48.670;6.184;2023-05-10T04:48:46;0.40;;;0.40;;
50122;SDS011;36021;48.670;6.184;2023-05-10T04:51:11;0.30;;;0.30;;
50122;SDS011;36021;48.670;6.184;2023-05-10T04:53:37;0.30;;;0.30;;
50122;SDS011;36021;48.670;6.184;2023-05-10T04:56:03;0.60;;;0.35;;
50122;SDS011;36021;48.670;6.184;2023-05-10T04:58:30;1.67;;;0.60;;
50122;SDS011;36021;48.670;6.184;2023-05-10T05:00:56;0.73;;;0.60;;
50122;SDS011;36021;48.670;6.184;2023-05-10T05:03:24;1.63;;;0.63;;
50122;SDS011;36021;48.670;6.184;2023-05-10T05:05:49;0.55;;;0.52;;
50122;SDS011;36021;48.670;6.184;2023-05-10T05:08:16;0.30;;;0.30;;
50122;SDS011;36021;48.670;6.184;2023-05-10T05:10:42;1.73;;;0.40;;
50122;SDS011;36021;48.670;6.184;2023-05-10T05:13:08;1.77;;;0.60;;
50122;SDS011;36021;48.670;6.184;2023-05-10T05:15:33;0.57;;;0.50;;
50122;SDS011;36021;48.670;6.184;2023-05-10T05:17:59;0.70;;;0.60;;
50122;SDS011;36021;48.670;6.184;2023-05-10T05:20:25;1.20;;;0.73;;
50122;SDS011;36021;48.670;6.184;2023-05-10T05:22:52;0.40;;;0.30;;
50122;SDS011;36021;48.670;6.184;2023-05-10T05:25:20;2.10;;;1.10;;
50122;SDS011;36021;48.670;6.184;2023-05-10T05:27:47;1.23;;;0.85;;
50122;SDS011;36021;48.670;6.184;2023-05-10T05:30:12;0.82;;;0.65;;
50122;SDS011;36021;48.670;6.184;2023-05-10T05:32:38;0.73;;;0.60;;
50122;SDS011;36021;48.670;6.184;2023-05-10T05:35:05;0.45;;;0.45;;
50122;SDS011;36021;48.670;6.184;2023-05-10T05:37:31;0.57;;;0.57;;
50122;SDS011;36021;48.670;6.184;2023-05-10T05:39:57;3.08;;;0.70;;
50122;SDS011;36021;48.670;6.184;2023-05-10T05:42:23;0.47;;;0.47;;
50122;SDS011;36021;48.670;6.184;2023-05-10T05:44:48;0.70;;;0.60;;
50122;SDS011;36021;48.670;6.184;2023-05-10T05:47:14;1.42;;;1.00;;
50122;SDS011;36021;48.670;6.184;2023-05-10T05:49:39;4.50;;;0.90;;
50122;SDS011;36021;48.670;6.184;2023-05-10T05:52:05;2.15;;;0.95;;
50122;SDS011;36021;48.670;6.184;2023-05-10T05:54:31;0.77;;;0.77;;
50122;SDS011;36021;48.670;6.184;2023-05-10T05:56:57;2.10;;;0.82;;
50122;SDS011;36021;48.670;6.184;2023-05-10T05:59:26;2.67;;;0.70;;
50122;SDS011;36021;48.670;6.184;2023-05-10T06:01:51;1.98;;;0.90;;
50122;SDS011;36021;48.670;6.184;2023-05-10T06:04:17;1.75;;;0.70;;
50122;SDS011;36021;48.670;6.184;2023-05-10T06:06:44;0.40;;;0.40;;
50122;SDS011;36021;48.670;6.184;2023-05-10T06:09:11;0.98;;;0.70;;
50122;SDS011;36021;48.670;6.184;2023-05-10T06:11:37;2.58;;;1.13;;
50122;SDS011;36021;48.670;6.184;2023-05-10T06:14:04;0.60;;;0.60;;
50122;SDS011;36021;48.670;6.184;2023-05-10T06:16:32;3.63;;;0.85;;
50122;SDS011;36021;48.670;6.184;2023-05-10T06:19:01;4.25;;;0.65;;
50122;SDS011;36021;48.670;6.184;2023-05-10T06:21:29;4.57;;;0.60;;
50122;SDS011;36021;48.670;6.184;2023-05-10T06:23:55;2.67;;;0.95;;
50122;SDS011;36021;48.670;6.184;2023-05-10T06:26:20;0.40;;;0.40;;
50122;SDS011;36021;48.670;6.184;2023-05-10T06:28:49;1.58;;;0.65;;
50122;SDS011;36021;48.670;6.184;2023-05-10T06:31:15;0.60;;;0.60;;
50122;SDS011;36021;48.670;6.184;2023-05-10T06:33:41;1.88;;;0.70;;
50122;SDS011;36021;48.670;6.184;2023-05-10T06:36:07;0.52;;;0.52;;
50122;SDS011;36021;48.670;6.184;2023-05-10T06:38:34;3.28;;;0.85;;
50122;SDS011;36021;48.670;6.184;2023-05-10T06:41:00;3.05;;;0.95;;
50122;SDS011;36021;48.670;6.184;2023-05-10T06:43:25;2.78;;;0.98;;
50122;SDS011;36021;48.670;6.184;2023-05-10T06:45:53;0.60;;;0.60;;
50122;SDS011;36021;48.670;6.184;2023-05-10T06:48:19;2.53;;;1.25;;
50122;SDS011;36021;48.670;6.184;2023-05-10T06:50:45;0.95;;;0.68;;
50122;SDS011;36021;48.670;6.184;2023-05-10T06:53:13;3.70;;;0.88;;
50122;SDS011;36021;48.670;6.184;2023-05-10T06:55:38;1.55;;;0.90;;
50122;SDS011;36021;48.670;6.184;2023-05-10T06:58:04;5.90;;;1.00;;
50122;SDS011;36021;48.670;6.184;2023-05-10T07:00:31;0.68;;;0.63;;
50122;SDS011;36021;48.670;6.184;2023-05-10T07:02:58;2.55;;;1.10;;
50122;SDS011;36021;48.670;6.184;2023-05-10T07:05:24;3.55;;;0.80;;
50122;SDS011;36021;48.670;6.184;2023-05-10T07:07:51;0.50;;;0.50;;
50122;SDS011;36021;48.670;6.184;2023-05-10T07:10:17;2.65;;;0.63;;
50122;SDS011;36021;48.670;6.184;2023-05-10T07:12:43;2.92;;;0.57;;
50122;SDS011;36021;48.670;6.184;2023-05-10T07:15:08;3.78;;;1.00;;
50122;SDS011;36021;48.670;6.184;2023-05-10T07:17:34;0.80;;;0.80;;
50122;SDS011;36021;48.670;6.184;2023-05-10T07:20:01;4.50;;;0.70;;
50122;SDS011;36021;48.670;6.184;2023-05-10T07:22:28;2.60;;;1.23;;
50122;SDS011;36021;48.670;6.184;2023-05-10T07:24:53;0.75;;;0.70;;
50122;SDS011;36021;48.670;6.184;2023-05-10T07:27:19;0.60;;;0.60;;
50122;SDS011;36021;48.670;6.184;2023-05-10T07:29:46;0.55;;;0.50;;
50122;SDS011;36021;48.670;6.184;2023-05-10T07:32:12;0.73;;;0.65;;
50122;SDS011;36021;48.670;6.184;2023-05-10T07:34:39;0.93;;;0.50;;
50122;SDS011;36021;48.670;6.184;2023-05-10T07:37:05;1.80;;;1.05;;
50122;SDS011;36021;48.670;6.184;2023-05-10T07:39:31;0.98;;;0.70;;
50122;SDS011;36021;48.670;6.184;2023-05-10T07:41:57;1.65;;;0.40;;
50122;SDS011;36021;48.670;6.184;2023-05-10T07:44:22;0.47;;;0.43;;
50122;SDS011;36021;48.670;6.184;2023-05-10T07:46:48;1.85;;;0.90;;
50122;SDS011;36021;48.670;6.184;2023-05-10T07:49:14;0.75;;;0.73;;
50122;SDS011;36021;48.670;6.184;2023-05-10T07:51:40;0.50;;;0.50;;
50122;SDS011;36021;48.670;6.184;2023-05-10T07:54:07;2.28;;;0.47;;
50122;SDS011;36021;48.670;6.184;2023-05-10T07:56:33;4.68;;;0.50;;
50122;SDS011;36021;48.670;6.184;2023-05-10T07:59:02;0.40;;;0.40;;
50122;SDS011;36021;48.670;6.184;2023-05-10T08:01:30;1.75;;;0.43;;
50122;SDS011;36021;48.670;6.184;2023-05-10T08:03:57;0.60;;;0.60;;
50122;SDS011;36021;48.670;6.184;2023-05-10T08:06:23;1.95;;;0.85;;
50122;SDS011;36021;48.670;6.184;2023-05-10T08:08:49;4.88;;;0.77;;
50122;SDS011;36021;48.670;6.184;2023-05-10T08:11:16;0.60;;;0.57;;
50122;SDS011;36021;48.670;6.184;2023-05-10T08:13:43;0.40;;;0.32;;
50122;SDS011;36021;48.670;6.184;2023-05-10T08:16:09;2.30;;;0.57;;
50122;SDS011;36021;48.670;6.184;2023-05-10T08:18:34;0.52;;;0.52;;
50122;SDS011;36021;48.670;6.184;2023-05-10T08:21:01;0.55;;;0.55;;
50122;SDS011;36021;48.670;6.184;2023-05-10T08:23:28;0.55;;;0.40;;
50122;SDS011;36021;48.670;6.184;2023-05-10T08:25:55;0.50;;;0.50;;
50122;SDS011;36021;48.670;6.184;2023-05-10T08:28:21;1.00;;;0.60;;
50122;SDS011;36021;48.670;6.184;2023-05-10T08:30:47;0.40;;;0.40;;
50122;SDS011;36021;48.670;6.184;2023-05-10T08:33:13;0.40;;;0.40;;
50122;SDS011;36021;48.670;6.184;2023-05-10T08:35:40;0.50;;;0.50;;
50122;SDS011;36021;48.670;6.184;2023-05-10T08:38:07;0.60;;;0.60;;
50122;SDS011;36021;48.670;6.184;2023-05-10T08:40:33;1.85;;;0.68;;
50122;SDS011;36021;48.670;6.184;2023-05-10T08:43:04;3.90;;;0.70;;
50122;SDS011;36021;48.670;6.184;2023-05-10T08:45:32;0.57;;;0.47;;
50122;SDS011;36021;48.670;6.184;2023-05-10T08:48:02;0.50;;;0.50;;
50122;SDS011;36021;48.670;6.184;2023-05-10T08:50:30;5.80;;;0.60;;
50122;SDS011;36021;48.670;6.184;2023-05-10T08:52:57;1.27;;;0.50;;
50122;SDS011;36021;48.670;6.184;2023-05-10T08:55:26;2.58;;;0.65;;
50122;SDS011;36021;48.670;6.184;2023-05-10T08:57:53;0.57;;;0.50;;
50122;SDS011;36021;48.670;6.184;2023-05-10T09:00:19;2.08;;;0.75;;
50122;SDS011;36021;48.670;6.184;2023-05-10T09:02:45;1.80;;;0.63;;
50122;SDS011;36021;48.670;6.184;2023-05-10T09:05:11;1.75;;;0.70;;
50122;SDS011;36021;48.670;6.184;2023-05-10T09:07:39;0.60;;;0.40;;
50122;SDS011;36021;48.670;6.184;2023-05-10T09:10:05;0.45;;;0.35;;
50122;SDS011;36021;48.670;6.184;2023-05-10T09:12:31;1.10;;;0.52;;
50122;SDS011;36021;48.670;6.184;2023-05-10T09:14:57;4.63;;;0.52;;
50122;SDS011;36021;48.670;6.184;2023-05-10T09:17:25;0.47;;;0.35;;
50122;SDS011;36021;48.670;6.184;2023-05-10T09:20:01;1.35;;;0.47;;
50122;SDS011;36021;48.670;6.184;2023-05-10T09:22:31;3.72;;;0.40;;
50122;SDS011;36021;48.670;6.184;2023-05-10T09:27:33;1.63;;;0.57;;
50122;SDS011;36021;48.670;6.184;2023-05-10T09:30:01;0.40;;;0.40;;
50122;SDS011;36021;48.670;6.184;2023-05-10T09:32:37;0.50;;;0.50;;
50122;SDS011;36021;48.670;6.184;2023-05-10T09:35:09;0.90;;;0.40;;
50122;SDS011;36021;48.670;6.184;2023-05-10T09:37:39;0.30;;;0.30;;
50122;SDS011;36021;48.670;6.184;2023-05-10T09:40:07;0.40;;;0.40;;
50122;SDS011;36021;48.670;6.184;2023-05-10T09:42:36;0.43;;;0.32;;
50122;SDS011;36021;48.670;6.184;2023-05-10T09:45:02;2.47;;;0.43;;
50122;SDS011;36021;48.670;6.184;2023-05-10T09:47:35;0.40;;;0.40;;
50122;SDS011;36021;48.670;6.184;2023-05-10T09:50:02;2.53;;;0.55;;
50122;SDS011;36021;48.670;6.184;2023-05-10T09:52:30;0.28;;;0.28;;
50122;SDS011;36021;48.670;6.184;2023-05-10T09:55:11;0.30;;;0.30;;
50122;SDS011;36021;48.670;6.184;2023-05-10T09:57:37;0.45;;;0.45;;
50122;SDS011;36021;48.670;6.184;2023-05-10T10:00:05;1.45;;;0.57;;
50122;SDS011;36021;48.670;6.184;2023-05-10T10:02:39;0.52;;;0.52;;
50122;SDS011;36021;48.670;6.184;2023-05-10T10:05:08;1.30;;;0.60;;
50122;SDS011;36021;48.670;6.184;2023-05-10T10:07:34;0.43;;;0.40;;
50122;SDS011;36021;48.670;6.184;2023-05-10T10:10:00;3.50;;;0.50;;
50122;SDS011;36021;48.670;6.184;2023-05-10T10:12:27;0.30;;;0.30;;
50122;SDS011;36021;48.670;6.184;2023-05-10T10:14:53;1.50;;;0.47;;
50122;SDS011;36021;48.670;6.184;2023-05-10T10:17:20;0.35;;;0.32;;
50122;SDS011;36021;48.670;6.184;2023-05-10T10:19:48;0.80;;;0.47;;
50122;SDS011;36021;48.670;6.184;2023-05-10T10:24:41;0.30;;;0.30;;
50122;SDS011;36021;48.670;6.184;2023-05-10T10:27:16;0.30;;;0.30;;
50122;SDS011;36021;48.670;6.184;2023-05-10T10:32:27;0.50;;;0.32;;
50122;SDS011;36021;48.670;6.184;2023-05-10T10:35:02;0.30;;;0.30;;
50122;SDS011;36021;48.670;6.184;2023-05-10T10:38:01;2.03;;;0.30;;
50122;SDS011;36021;48.670;6.184;2023-05-10T10:42:52;0.30;;;0.30;;
50122;SDS011;36021;48.670;6.184;2023-05-10T10:45:19;0.82;;;0.40;;
50122;SDS011;36021;48.670;6.184;2023-05-10T10:47:46;0.52;;;0.35;;
50122;SDS011;36021;48.670;6.184;2023-05-10T10:50:11;0.17;;;0.17;;
50122;SDS011;36021;48.670;6.184;2023-05-10T10:52:42;1.35;;;0.20;;
50122;SDS011;36021;48.670;6.184;2023-05-10T10:55:09;0.70;;;0.20;;
50122;SDS011;36021;48.670;6.184;2023-05-10T10:57:55;0.20;;;0.20;;
50122;SDS011;36021;48.670;6.184;2023-05-10T11:00:34;0.20;;;0.20;;
50122;SDS011;36021;48.670;6.184;2023-05-10T11:03:11;0.38;;;0.38;;
50122;SDS011;36021;48.670;6.184;2023-05-10T11:05:45;0.20;;;0.20;;
50122;SDS011;36021;48.670;6.184;2023-05-10T11:11:07;0.17;;;0.17;;
50122;SDS011;36021;48.670;6.184;2023-05-10T11:13:34;0.20;;;0.20;;
50122;SDS011;36021;48.670;6.184;2023-05-10T11:16:10;0.20;;;0.20;;
50122;SDS011;36021;48.670;6.184;2023-05-10T11:18:38;0.20;;;0.20;;
50122;SDS011;36021;48.670;6.184;2023-05-10T11:21:04;0.40;;;0.20;;
50122;SDS011;36021;48.670;6.184;2023-05-10T11:26:13;0.43;;;0.20;;
50122;SDS011;36021;48.670;6.184;2023-05-10T11:28:41;0.15;;;0.15;;
50122;SDS011;36021;48.670;6.184;2023-05-10T11:31:10;0.43;;;0.30;;
50122;SDS011;36021;48.670;6.184;2023-05-10T11:33:42;0.35;;;0.20;;
50122;SDS011;36021;48.670;6.184;2023-05-10T11:36:13;0.77;;;0.30;;
50122;SDS011;36021;48.670;6.184;2023-05-10T11:38:40;0.80;;;0.22;;
50122;SDS011;36021;48.670;6.184;2023-05-10T11:41:07;0.45;;;0.45;;
50122;SDS011;36021;48.670;6.184;2023-05-10T11:43:40;0.25;;;0.25;;
50122;SDS011;36021;48.670;6.184;2023-05-10T11:46:10;0.35;;;0.20;;
50122;SDS011;36021;48.670;6.184;2023-05-10T11:48:41;0.20;;;0.20;;
50122;SDS011;36021;48.670;6.184;2023-05-10T11:51:10;0.20;;;0.20;;
50122;SDS011;36021;48.670;6.184;2023-05-10T11:53:36;0.10;;;0.10;;
50122;SDS011;36021;48.670;6.184;2023-05-10T11:56:09;0.30;;;0.20;;
50122;SDS011;36021;48.670;6.184;2023-05-10T11:58:37;1.88;;;0.22;;
50122;SDS011;36021;48.670;6.184;2023-05-10T12:01:05;0.10;;;0.10;;
50122;SDS011;36021;48.670;6.184;2023-05-10T12:03:33;0.20;;;0.20;;
50122;SDS011;36021;48.670;6.184;2023-05-10T12:06:00;0.10;;;0.10;;
50122;SDS011;36021;48.670;6.184;2023-05-10T12:08:28;0.30;;;0.30;;
50122;SDS011;36021;48.670;6.184;2023-05-10T12:11:08;0.30;;;0.30;;
50122;SDS011;36021;48.670;6.184;2023-05-10T12:13:43;0.17;;;0.17;;
50122;SDS011;36021;48.670;6.184;2023-05-10T12:16:21;0.30;;;0.25;;
50122;SDS011;36021;48.670;6.184;2023-05-10T12:18:49;0.20;;;0.20;;
50122;SDS011;36021;48.670;6.184;2023-05-10T12:21:17;0.20;;;0.20;;
50122;SDS011;36021;48.670;6.184;2023-05-10T12:23:45;0.30;;;0.30;;
50122;SDS011;36021;48.670;6.184;2023-05-10T12:26:16;0.20;;;0.20;;
50122;SDS011;36021;48.670;6.184;2023-05-10T12:28:43;2.45;;;0.25;;
50122;SDS011;36021;48.670;6.184;2023-05-10T12:31:09;0.20;;;0.20;;
50122;SDS011;36021;48.670;6.184;2023-05-10T12:33:38;0.52;;;0.20;;
50122;SDS011;36021;48.670;6.184;2023-05-10T12:36:08;0.22;;;0.20;;
50122;SDS011;36021;48.670;6.184;2023-05-10T12:38:35;0.25;;;0.25;;
50122;SDS011;36021;48.670;6.184;2023-05-10T12:41:04;0.20;;;0.20;;
50122;SDS011;36021;48.670;6.184;2023-05-10T12:43:34;0.15;;;0.15;;
50122;SDS011;36021;48.670;6.184;2023-05-10T12:46:11;1.05;;;0.32;;
50122;SDS011;36021;48.670;6.184;2023-05-10T12:48:38;0.55;;;0.30;;
50122;SDS011;36021;48.670;6.184;2023-05-10T12:51:05;0.35;;;0.35;;
50122;SDS011;36021;48.670;6.184;2023-05-10T12:53:34;0.43;;;0.28;;
50122;SDS011;36021;48.670;6.184;2023-05-10T12:56:01;0.40;;;0.35;;
50122;SDS011;36021;48.670;6.184;2023-05-10T12:58:26;0.15;;;0.15;;
50122;SDS011;36021;48.670;6.184;2023-05-10T13:00:53;0.20;;;0.20;;
50122;SDS011;36021;48.670;6.184;2023-05-10T13:03:19;1.15;;;0.43;;
50122;SDS011;36021;48.670;6.184;2023-05-10T13:05:45;0.20;;;0.20;;
50122;SDS011;36021;48.670;6.184;2023-05-10T13:08:11;0.57;;;0.30;;
50122;SDS011;36021;48.670;6.184;2023-05-10T13:10:38;0.17;;;0.17;;
50122;SDS011;36021;48.670;6.184;2023-05-10T13:13:04;0.50;;;0.32;;
50122;SDS011;36021;48.670;6.184;2023-05-10T13:15:30;0.20;;;0.20;;
50122;SDS011;36021;48.670;6.184;2023-05-10T13:17:56;0.30;;;0.30;;
50122;SDS011;36021;48.670;6.184;2023-05-10T13:20:21;0.30;;;0.20;;
50122;SDS011;36021;48.670;6.184;2023-05-10T13:22:47;1.67;;;0.20;;
50122;SDS011;36021;48.670;6.184;2023-05-10T13:25:14;0.68;;;0.30;;
50122;SDS011;36021;48.670;6.184;2023-05-10T13:27:40;0.28;;;0.28;;
50122;SDS011;36021;48.670;6.184;2023-05-10T13:30:07;0.22;;;0.20;;
50122;SDS011;36021;48.670;6.184;2023-05-10T13:32:34;0.35;;;0.30;;
50122;SDS011;36021;48.670;6.184;2023-05-10T13:35:03;0.03;;;0.03;;
50122;SDS011;36021;48.670;6.184;2023-05-10T13:37:32;0.52;;;0.30;;
50122;SDS011;36021;48.670;6.184;2023-05-10T13:40:00;0.00;;;0.00;;
50122;SDS011;36021;48.670;6.184;2023-05-10T13:42:26;0.00;;;0.00;;
50122;SDS011;36021;48.670;6.184;2023-05-10T13:44:52;0.30;;;0.17;;
50122;SDS011;36021;48.670;6.184;2023-05-10T13:47:17;1.80;;;0.47;;
50122;SDS011;36021;48.670;6.184;2023-05-10T13:49:43;0.32;;;0.20;;
50122;SDS011;36021;48.670;6.184;2023-05-10T13:52:09;0.52;;;0.30;;
50122;SDS011;36021;48.670;6.184;2023-05-10T13:54:38;2.13;;;0.47;;
50122;SDS011;36021;48.670;6.184;2023-05-10T13:57:04;0.70;;;0.15;;
50122;SDS011;36021;48.670;6.184;2023-05-10T13:59:31;0.20;;;0.20;;
50122;SDS011;36021;48.670;6.184;2023-05-10T14:01:57;0.55;;;0.40;;
50122;SDS011;36021;48.670;6.184;2023-05-10T14:04:24;0.13;;;0.13;;
50122;SDS011;36021;48.670;6.184;2023-05-10T14:06:51;0.22;;;0.20;;
50122;SDS011;36021;48.670;6.184;2023-05-10T14:09:18;0.50;;;0.28;;
50122;SDS011;36021;48.670;6.184;2023-05-10T14:11:45;0.80;;;0.22;;
50122;SDS011;36021;48.670;6.184;2023-05-10T14:14:10;0.20;;;0.20;;
50122;SDS011;36021;48.670;6.184;2023-05-10T14:16:36;0.50;;;0.32;;
50122;SDS011;36021;48.670;6.184;2023-05-10T14:19:02;1.10;;;0.20;;
50122;SDS011;36021;48.670;6.184;2023-05-10T14:21:28;0.10;;;0.10;;
50122;SDS011;36021;48.670;6.184;2023-05-10T14:23:56;0.20;;;0.20;;
50122;SDS011;36021;48.670;6.184;2023-05-10T14:26:24;1.50;;;0.40;;
50122;SDS011;36021;48.670;6.184;2023-05-10T14:28:49;0.20;;;0.20;;
50122;SDS011;36021;48.670;6.184;2023-05-10T14:31:15;0.57;;;0.17;;
50122;SDS011;36021;48.670;6.184;2023-05-10T14:33:42;0.10;;;0.10;;
50122;SDS011;36021;48.670;6.184;2023-05-10T14:36:09;0.63;;;0.63;;
50122;SDS011;36021;48.670;6.184;2023-05-10T14:38:35;0.25;;;0.25;;
50122;SDS011;36021;48.670;6.184;2023-05-10T14:41:01;0.20;;;0.20;;
50122;SDS011;36021;48.670;6.184;2023-05-10T14:43:27;0.15;;;0.15;;
50122;SDS011;36021;48.670;6.184;2023-05-10T14:45:53;0.57;;;0.22;;
50122;SDS011;36021;48.670;6.184;2023-05-10T14:48:19;0.13;;;0.10;;
50122;SDS011;36021;48.670;6.184;2023-05-10T14:50:46;0.70;;;0.30;;
50122;SDS011;36021;48.670;6.184;2023-05-10T14:53:12;0.20;;;0.20;;
50122;SDS011;36021;48.670;6.184;2023-05-10T14:55:37;0.80;;;0.45;;
50122;SDS011;36021;48.670;6.184;2023-05-10T14:58:04;0.10;;;0.10;;
50122;SDS011;36021;48.670;6.184;2023-05-10T15:00:32;0.10;;;0.10;;
50122;SDS011;36021;48.670;6.184;2023-05-10T15:02:57;0.73;;;0.20;;
50122;SDS011;36021;48.670;6.184;2023-05-10T15:05:25;0.65;;;0.20;;
50122;SDS011;36021;48.670;6.184;2023-05-10T15:07:50;0.10;;;0.10;;
50122;SDS011;36021;48.670;6.184;2023-05-10T15:10:17;5.28;;;0.63;;
50122;SDS011;36021;48.670;6.184;2023-05-10T15:12:43;1.33;;;0.50;;
50122;SDS011;36021;48.670;6.184;2023-05-10T15:15:08;0.57;;;0.22;;
50122;SDS011;36021;48.670;6.184;2023-05-10T15:17:34;0.10;;;0.10;;
50122;SDS011;36021;48.670;6.184;2023-05-10T15:20:00;0.20;;;0.10;;
50122;SDS011;36021;48.670;6.184;2023-05-10T15:24:56;0.98;;;0.28;;
50122;SDS011;36021;48.670;6.184;2023-05-10T15:27:23;0.88;;;0.17;;
50122;SDS011;36021;48.670;6.184;2023-05-10T15:29:52;0.28;;;0.17;;
50122;SDS011;36021;48.670;6.184;2023-05-10T15:32:18;0.10;;;0.10;;
50122;SDS011;36021;48.670;6.184;2023-05-10T15:34:45;0.20;;;0.10;;
50122;SDS011;36021;48.670;6.184;2023-05-10T15:37:11;0.45;;;0.35;;
50122;SDS011;36021;48.670;6.184;2023-05-10T15:39:36;1.02;;;0.30;;
50122;SDS011;36021;48.670;6.184;2023-05-10T15:42:02;0.80;;;0.20;;
50122;SDS011;36021;48.670;6.184;2023-05-10T15:44:29;0.10;;;0.10;;
50122;SDS011;36021;48.670;6.184;2023-05-10T15:46:54;0.55;;;0.20;;
50122;SDS011;36021;48.670;6.184;2023-05-10T15:49:21;0.20;;;0.20;;